sensor_id;sensor_type;location;lat;lon;timestamp;pressure;altitude;pressure_sealevel;temperature;humidity
32251;BME280;41295;48.518;9.206;2023-02-20T00:01:51;98320.84;;;9.12;68.91
32251;BME280;41295;48.518;9.206;2023-02-20T00:03:55;98318.19;;;9.16;68.41
32251;BME280;41295;48.518;9.206;2023-02-20T00:05:58;98312.22;;;9.10;68.41
32251;BME280;41295;48.518;9.206;2023-02-20T00:08:01;98314.06;;;9.04;68.93
32251;BME280;41295;48.518;9.206;2023-02-20T00:10:04;98310.34;;;9.19;68.24
32251;BME280;41295;48.518;9.206;2023-02-20T00:12:07;98310.41;;;9.14;68.23
32251;BME280;41295;48.518;9.206;2023-02-20T00:14:10;98315.81;;;9.01;68.67
32251;BME280;41295;48.518;9.206;2023-02-20T00:16:12;98319.38;;;8.94;69.25
32251;BME280;41295;48.518;9.206;2023-02-20T00:18:15;98308.81;;;9.05;68.61
32251;BME280;41295;48.518;9.206;2023-02-20T00:20:21;98318.16;;;9.19;68.07
32251;BME280;41295;48.518;9.206;2023-02-20T00:22:24;98321.66;;;9.16;67.97
32251;BME280;41295;48.518;9.206;2023-02-20T00:24:27;98326.22;;;9.01;68.47
32251;BME280;41295;48.518;9.206;2023-02-20T00:26:30;98323.69;;;8.97;69.01
32251;BME280;41295;48.518;9.206;2023-02-20T00:28:32;98322.84;;;8.95;68.75
32251;BME280;41295;48.518;9.206;2023-02-20T00:30:36;98321.78;;;9.08;68.22
32251;BME280;41295;48.518;9.206;2023-02-20T00:32:38;98319.03;;;9.18;68.16
32251;BME280;41295;48.518;9.206;2023-02-20T00:34:41;98320.03;;;9.09;68.45
32251;BME280;41295;48.518;9.206;2023-02-20T00:36:45;98320.00;;;9.12;68.17
32251;BME280;41295;48.518;9.206;2023-02-20T00:38:47;98306.97;;;9.12;68.01
32251;BME280;41295;48.518;9.206;2023-02-20T00:40:50;98302.81;;;9.00;68.05
32251;BME280;41295;48.518;9.206;2023-02-20T00:42:53;98306.28;;;9.00;68.39
32251;BME280;41295;48.518;9.206;2023-02-20T00:44:55;98309.53;;;9.15;67.91
32251;BME280;41295;48.518;9.206;2023-02-20T00:46:58;98309.66;;;9.07;67.94
32251;BME280;41295;48.518;9.206;2023-02-20T00:49:00;98303.63;;;9.05;67.94
32251;BME280;41295;48.518;9.206;2023-02-20T00:51:03;98307.94;;;9.05;68.08
32251;BME280;41295;48.518;9.206;2023-02-20T00:53:07;98320.94;;;9.06;67.58
32251;BME280;41295;48.518;9.206;2023-02-20T00:55:10;98325.97;;;9.17;67.45
32251;BME280;41295;48.518;9.206;2023-02-20T00:57:13;98323.44;;;9.14;67.22
32251;BME280;41295;48.518;9.206;2023-02-20T00:59:16;98333.94;;;9.06;68.20
32251;BME280;41295;48.518;9.206;2023-02-20T01:01:18;98335.06;;;8.89;68.42
32251;BME280;41295;48.518;9.206;2023-02-20T01:03:21;98339.13;;;9.09;67.64
32251;BME280;41295;48.518;9.206;2023-02-20T01:05:23;98342.72;;;8.99;67.93
32251;BME280;41295;48.518;9.206;2023-02-20T01:07:26;98347.13;;;8.94;68.10
32251;BME280;41295;48.518;9.206;2023-02-20T01:09:30;98355.81;;;8.93;68.04
32251;BME280;41295;48.518;9.206;2023-02-20T01:11:32;98351.38;;;8.99;68.32
32251;BME280;41295;48.518;9.206;2023-02-20T01:13:35;98343.41;;;9.12;66.64
32251;BME280;41295;48.518;9.206;2023-02-20T01:15:38;98351.31;;;9.06;67.39
32251;BME280;41295;48.518;9.206;2023-02-20T01:17:40;98353.13;;;9.00;67.32
32251;BME280;41295;48.518;9.206;2023-02-20T01:19:43;98339.09;;;9.11;67.21
32251;BME280;41295;48.518;9.206;2023-02-20T01:21:48;98341.75;;;9.06;67.42
32251;BME280;41295;48.518;9.206;2023-02-20T01:23:51;98327.81;;;9.10;67.03
32251;BME280;41295;48.518;9.206;2023-02-20T01:25:55;98329.69;;;8.99;67.58
32251;BME280;41295;48.518;9.206;2023-02-20T01:27:57;98326.00;;;9.16;66.90
32251;BME280;41295;48.518;9.206;2023-02-20T01:30:00;98328.41;;;9.30;66.50
32251;BME280;41295;48.518;9.206;2023-02-20T01:32:03;98325.84;;;9.26;66.51
32251;BME280;41295;48.518;9.206;2023-02-20T01:34:06;98325.97;;;9.17;66.92
32251;BME280;41295;48.518;9.206;2023-02-20T01:36:09;98331.13;;;9.22;66.60
32251;BME280;41295;48.518;9.206;2023-02-20T01:38:12;98326.00;;;9.16;66.99
32251;BME280;41295;48.518;9.206;2023-02-20T01:40:16;98322.63;;;9.10;67.11
32251;BME280;41295;48.518;9.206;2023-02-20T01:42:22;98317.34;;;9.15;66.96
32251;BME280;41295;48.518;9.206;2023-02-20T01:44:28;98320.22;;;8.96;67.78
32251;BME280;41295;48.518;9.206;2023-02-20T01:46:47;98322.94;;;8.87;68.00
32251;BME280;41295;48.518;9.206;2023-02-20T01:48:52;98315.13;;;8.87;68.47
32251;BME280;41295;48.518;9.206;2023-02-20T01:50:58;98316.94;;;8.82;68.54
32251;BME280;41295;48.518;9.206;2023-02-20T01:53:03;98311.75;;;8.82;68.38
32251;BME280;41295;48.518;9.206;2023-02-20T01:55:10;98310.66;;;8.98;67.60
32251;BME280;41295;48.518;9.206;2023-02-20T01:57:17;98303.66;;;9.04;67.18
32251;BME280;41295;48.518;9.206;2023-02-20T01:59:24;98304.31;;;9.15;66.96
32251;BME280;41295;48.518;9.206;2023-02-20T02:01:29;98294.06;;;9.04;66.72
32251;BME280;41295;48.518;9.206;2023-02-20T02:03:35;98299.44;;;8.92;67.36
32251;BME280;41295;48.518;9.206;2023-02-20T02:05:41;98297.81;;;8.87;67.36
32251;BME280;41295;48.518;9.206;2023-02-20T02:07:45;98303.91;;;8.83;67.86
32251;BME280;41295;48.518;9.206;2023-02-20T02:09:51;98294.38;;;8.84;68.14
32251;BME280;41295;48.518;9.206;2023-02-20T02:11:56;98298.81;;;8.77;67.93
32251;BME280;41295;48.518;9.206;2023-02-20T02:13:58;98292.75;;;8.76;68.28
32251;BME280;41295;48.518;9.206;2023-02-20T02:16:08;98296.16;;;8.80;67.71
32251;BME280;41295;48.518;9.206;2023-02-20T02:18:32;98295.34;;;8.76;67.82
32251;BME280;41295;48.518;9.206;2023-02-20T02:21:20;98291.66;;;8.92;67.25
32251;BME280;41295;48.518;9.206;2023-02-20T02:26:39;98288.31;;;8.83;67.28
32251;BME280;41295;48.518;9.206;2023-02-20T02:29:26;98284.06;;;8.77;67.22
32251;BME280;41295;48.518;9.206;2023-02-20T02:32:09;98269.22;;;8.86;67.19
32251;BME280;41295;48.518;9.206;2023-02-20T02:34:32;98270.09;;;8.83;67.18
32251;BME280;41295;48.518;9.206;2023-02-20T02:36:47;98267.59;;;8.77;67.36
32251;BME280;41295;48.518;9.206;2023-02-20T02:38:57;98260.44;;;8.92;66.69
32251;BME280;41295;48.518;9.206;2023-02-20T02:41:07;98271.06;;;8.76;66.82
32251;BME280;41295;48.518;9.206;2023-02-20T02:43:15;98266.03;;;8.65;67.43
32251;BME280;41295;48.518;9.206;2023-02-20T02:45:25;98265.22;;;8.63;67.58
32251;BME280;41295;48.518;9.206;2023-02-20T02:47:34;98266.16;;;8.54;67.47
32251;BME280;41295;48.518;9.206;2023-02-20T02:49:43;98261.81;;;8.53;68.00
32251;BME280;41295;48.518;9.206;2023-02-20T02:51:49;98256.66;;;8.51;67.95
32251;BME280;41295;48.518;9.206;2023-02-20T02:54:04;98262.69;;;8.53;67.53
32251;BME280;41295;48.518;9.206;2023-02-20T02:56:08;98257.47;;;8.55;67.53
32251;BME280;41295;48.518;9.206;2023-02-20T02:58:22;98264.31;;;8.64;66.63
32251;BME280;41295;48.518;9.206;2023-02-20T03:00:27;98270.47;;;8.55;67.18
32251;BME280;41295;48.518;9.206;2023-02-20T03:02:34;98272.22;;;8.53;67.55
32251;BME280;41295;48.518;9.206;2023-02-20T03:04:40;98278.94;;;8.73;66.61
32251;BME280;41295;48.518;9.206;2023-02-20T03:06:45;98280.00;;;8.56;67.26
32251;BME280;41295;48.518;9.206;2023-02-20T03:08:53;98278.91;;;8.74;66.66
32251;BME280;41295;48.518;9.206;2023-02-20T03:11:01;98278.81;;;8.82;66.12
32251;BME280;41295;48.518;9.206;2023-02-20T03:13:05;98280.59;;;8.78;66.35
32251;BME280;41295;48.518;9.206;2023-02-20T03:15:12;98273.78;;;8.70;66.88
32251;BME280;41295;48.518;9.206;2023-02-20T03:17:38;98278.81;;;8.81;65.92
32251;BME280;41295;48.518;9.206;2023-02-20T03:19:46;98268.28;;;8.90;65.87
32251;BME280;41295;48.518;9.206;2023-02-20T03:21:50;98269.91;;;8.97;65.38
32251;BME280;41295;48.518;9.206;2023-02-20T03:23:59;98270.94;;;8.85;65.85
32251;BME280;41295;48.518;9.206;2023-02-20T03:26:05;98258.03;;;8.79;66.04
32251;BME280;41295;48.518;9.206;2023-02-20T03:28:14;98263.34;;;8.71;66.32
32251;BME280;41295;48.518;9.206;2023-02-20T03:30:21;98260.91;;;8.60;66.58
32251;BME280;41295;48.518;9.206;2023-02-20T03:32:26;98258.88;;;8.80;65.66
32251;BME280;41295;48.518;9.206;2023-02-20T03:34:49;98260.78;;;8.70;65.72
32251;BME280;41295;48.518;9.206;2023-02-20T03:37:11;98269.44;;;8.69;65.79
32251;BME280;41295;48.518;9.206;2023-02-20T03:39:38;98264.38;;;8.59;66.13
32251;BME280;41295;48.518;9.206;2023-02-20T03:42:03;98264.41;;;8.56;66.03
32251;BME280;41295;48.518;9.206;2023-02-20T03:44:27;98267.97;;;8.46;66.45
32251;BME280;41295;48.518;9.206;2023-02-20T03:46:31;98272.28;;;8.48;66.09
32251;BME280;41295;48.518;9.206;2023-02-20T03:48:38;98271.50;;;8.43;66.11
32251;BME280;41295;48.518;9.206;2023-02-20T03:50:41;98274.91;;;8.47;66.20
32251;BME280;41295;48.518;9.206;2023-02-20T03:53:02;98266.34;;;8.38;66.29
32251;BME280;41295;48.518;9.206;2023-02-20T03:55:07;98270.50;;;8.52;65.81
32251;BME280;41295;48.518;9.206;2023-02-20T03:57:13;98269.84;;;8.37;66.12
32251;BME280;41295;48.518;9.206;2023-02-20T03:59:19;98255.00;;;8.44;66.23
32251;BME280;41295;48.518;9.206;2023-02-20T04:01:25;98256.03;;;8.32;66.54
32251;BME280;41295;48.518;9.206;2023-02-20T04:03:32;98261.34;;;8.23;66.63
32251;BME280;41295;48.518;9.206;2023-02-20T04:05:38;98268.31;;;8.19;66.50
32251;BME280;41295;48.518;9.206;2023-02-20T04:07:50;98271.75;;;8.21;66.49
32251;BME280;41295;48.518;9.206;2023-02-20T04:09:56;98269.94;;;8.28;66.43
32251;BME280;41295;48.518;9.206;2023-02-20T04:12:05;98274.00;;;8.49;65.62
32251;BME280;41295;48.518;9.206;2023-02-20T04:14:11;98269.84;;;8.37;65.61
32251;BME280;41295;48.518;9.206;2023-02-20T04:16:16;98265.53;;;8.33;65.87
32251;BME280;41295;48.518;9.206;2023-02-20T04:18:20;98266.47;;;8.27;66.17
32251;BME280;41295;48.518;9.206;2023-02-20T04:20:23;98268.41;;;8.13;66.48
32251;BME280;41295;48.518;9.206;2023-02-20T04:22:28;98271.03;;;8.08;66.94
32251;BME280;41295;48.518;9.206;2023-02-20T04:24:36;98263.97;;;8.21;66.27
32251;BME280;41295;48.518;9.206;2023-02-20T04:26:41;98258.84;;;8.16;66.30
32251;BME280;41295;48.518;9.206;2023-02-20T04:28:46;98261.56;;;8.05;66.33
32251;BME280;41295;48.518;9.206;2023-02-20T04:30:49;98268.53;;;8.00;66.38
32251;BME280;41295;48.518;9.206;2023-02-20T04:32:53;98264.22;;;7.99;66.62
32251;BME280;41295;48.518;9.206;2023-02-20T04:34:56;98253.84;;;7.98;66.39
32251;BME280;41295;48.518;9.206;2023-02-20T04:37:06;98252.16;;;7.92;66.69
32251;BME280;41295;48.518;9.206;2023-02-20T04:39:09;98252.03;;;8.04;65.93
32251;BME280;41295;48.518;9.206;2023-02-20T04:41:11;98246.97;;;7.95;66.60
32251;BME280;41295;48.518;9.206;2023-02-20T04:43:14;98242.75;;;7.83;66.75
32251;BME280;41295;48.518;9.206;2023-02-20T04:45:18;98245.28;;;7.86;66.69
32251;BME280;41295;48.518;9.206;2023-02-20T04:47:21;98243.59;;;7.85;66.53
32251;BME280;41295;48.518;9.206;2023-02-20T04:49:23;98242.81;;;7.77;66.67
32251;BME280;41295;48.518;9.206;2023-02-20T04:51:26;98242.00;;;7.72;66.76
32251;BME280;41295;48.518;9.206;2023-02-20T04:53:28;98244.56;;;7.75;66.92
32251;BME280;41295;48.518;9.206;2023-02-20T04:55:31;98243.75;;;7.69;66.76
32251;BME280;41295;48.518;9.206;2023-02-20T04:57:34;98241.19;;;7.66;66.97
32251;BME280;41295;48.518;9.206;2023-02-20T04:59:36;98241.22;;;7.63;67.27
32251;BME280;41295;48.518;9.206;2023-02-20T05:01:40;98236.88;;;7.64;66.61
32251;BME280;41295;48.518;9.206;2023-02-20T05:03:43;98232.63;;;7.56;66.90
32251;BME280;41295;48.518;9.206;2023-02-20T05:05:46;98227.50;;;7.50;66.95
32251;BME280;41295;48.518;9.206;2023-02-20T05:07:53;98229.25;;;7.50;66.91
32251;BME280;41295;48.518;9.206;2023-02-20T05:09:56;98236.19;;;7.46;66.89
32251;BME280;41295;48.518;9.206;2023-02-20T05:11:58;98239.63;;;7.50;66.41
32251;BME280;41295;48.518;9.206;2023-02-20T05:14:01;98233.44;;;7.62;65.92
32251;BME280;41295;48.518;9.206;2023-02-20T05:16:04;98231.06;;;7.41;66.46
32251;BME280;41295;48.518;9.206;2023-02-20T05:18:08;98233.69;;;7.37;66.99
32251;BME280;41295;48.518;9.206;2023-02-20T05:20:12;98237.19;;;7.29;67.09
32251;BME280;41295;48.518;9.206;2023-02-20T05:22:15;98239.84;;;7.25;67.68
32251;BME280;41295;48.518;9.206;2023-02-20T05:24:19;98244.16;;;7.24;67.65
32251;BME280;41295;48.518;9.206;2023-02-20T05:26:22;98245.91;;;7.22;67.77
32251;BME280;41295;48.518;9.206;2023-02-20T05:28:25;98251.13;;;7.20;67.64
32251;BME280;41295;48.518;9.206;2023-02-20T05:30:27;98248.53;;;7.19;67.78
32251;BME280;41295;48.518;9.206;2023-02-20T05:32:30;98256.38;;;7.14;67.67
32251;BME280;41295;48.518;9.206;2023-02-20T05:34:34;98251.19;;;7.13;67.53
32251;BME280;41295;48.518;9.206;2023-02-20T05:36:36;98239.91;;;7.15;67.38
32251;BME280;41295;48.518;9.206;2023-02-20T05:38:39;98246.00;;;7.13;67.07
32251;BME280;41295;48.518;9.206;2023-02-20T05:40:48;98245.91;;;7.24;67.26
32251;BME280;41295;48.518;9.206;2023-02-20T05:42:50;98244.25;;;7.16;67.75
32251;BME280;41295;48.518;9.206;2023-02-20T05:44:53;98246.75;;;7.29;66.93
32251;BME280;41295;48.518;9.206;2023-02-20T05:46:55;98251.94;;;7.29;67.27
32251;BME280;41295;48.518;9.206;2023-02-20T05:48:58;98253.56;;;7.39;66.71
32251;BME280;41295;48.518;9.206;2023-02-20T05:51:02;98244.97;;;7.31;67.03
32251;BME280;41295;48.518;9.206;2023-02-20T05:53:05;98237.88;;;7.49;66.08
32251;BME280;41295;48.518;9.206;2023-02-20T05:55:07;98239.63;;;7.50;66.20
32251;BME280;41295;48.518;9.206;2023-02-20T05:57:10;98239.75;;;7.36;66.56
32251;BME280;41295;48.518;9.206;2023-02-20T05:59:17;98242.38;;;7.31;66.70
32251;BME280;41295;48.518;9.206;2023-02-20T06:01:21;98236.25;;;7.38;66.64
32251;BME280;41295;48.518;9.206;2023-02-20T06:03:24;98231.94;;;7.37;66.57
32251;BME280;41295;48.518;9.206;2023-02-20T06:05:27;98236.34;;;7.29;66.70
32251;BME280;41295;48.518;9.206;2023-02-20T06:07:31;98233.81;;;7.22;66.98
32251;BME280;41295;48.518;9.206;2023-02-20T06:09:33;98238.91;;;7.33;66.10
32251;BME280;41295;48.518;9.206;2023-02-20T06:11:36;98228.66;;;7.19;66.87
32251;BME280;41295;48.518;9.206;2023-02-20T06:13:39;98234.66;;;7.25;66.68
32251;BME280;41295;48.518;9.206;2023-02-20T06:15:42;98240.72;;;7.24;66.77
32251;BME280;41295;48.518;9.206;2023-02-20T06:17:45;98245.09;;;7.20;66.53
32251;BME280;41295;48.518;9.206;2023-02-20T06:19:48;98243.41;;;7.14;66.72
32251;BME280;41295;48.518;9.206;2023-02-20T06:21:51;98241.66;;;7.13;66.53
32251;BME280;41295;48.518;9.206;2023-02-20T06:23:56;98247.56;;;7.29;66.36
32251;BME280;41295;48.518;9.206;2023-02-20T06:25:58;98242.34;;;7.37;65.99
32251;BME280;41295;48.518;9.206;2023-02-20T06:28:01;98253.78;;;7.13;66.50
32251;BME280;41295;48.518;9.206;2023-02-20T06:30:04;98254.69;;;7.07;66.71
32251;BME280;41295;48.518;9.206;2023-02-20T06:32:06;98256.41;;;7.11;66.84
32251;BME280;41295;48.518;9.206;2023-02-20T06:34:09;98258.16;;;7.04;66.70
32251;BME280;41295;48.518;9.206;2023-02-20T06:36:19;98255.56;;;7.07;66.61
32251;BME280;41295;48.518;9.206;2023-02-20T06:38:21;98254.72;;;6.99;66.85
32251;BME280;41295;48.518;9.206;2023-02-20T06:40:26;98255.66;;;6.95;66.93
32251;BME280;41295;48.518;9.206;2023-02-20T06:42:28;98266.91;;;6.89;66.93
32251;BME280;41295;48.518;9.206;2023-02-20T06:44:31;98263.47;;;6.87;67.11
32251;BME280;41295;48.518;9.206;2023-02-20T06:46:34;98266.06;;;6.87;66.98
32251;BME280;41295;48.518;9.206;2023-02-20T06:48:42;98266.94;;;6.84;66.97
32251;BME280;41295;48.518;9.206;2023-02-20T06:50:45;98264.34;;;6.86;66.72
32251;BME280;41295;48.518;9.206;2023-02-20T06:52:47;98260.91;;;6.79;66.50
32251;BME280;41295;48.518;9.206;2023-02-20T06:54:50;98259.22;;;6.78;66.97
32251;BME280;41295;48.518;9.206;2023-02-20T06:56:55;98261.78;;;6.80;66.83
32251;BME280;41295;48.518;9.206;2023-02-20T06:59:00;98268.59;;;6.93;66.43
32251;BME280;41295;48.518;9.206;2023-02-20T07:01:03;98268.59;;;6.93;66.82
32251;BME280;41295;48.518;9.206;2023-02-20T07:03:06;98272.13;;;6.83;67.02
32251;BME280;41295;48.518;9.206;2023-02-20T07:05:09;98271.28;;;6.81;67.09
32251;BME280;41295;48.518;9.206;2023-02-20T07:07:12;98271.28;;;6.82;67.10
32251;BME280;41295;48.518;9.206;2023-02-20T07:09:15;98282.47;;;6.91;67.22
32251;BME280;41295;48.518;9.206;2023-02-20T07:11:20;98291.00;;;7.05;66.74
32251;BME280;41295;48.518;9.206;2023-02-20T07:13:24;98290.19;;;7.02;66.75
32251;BME280;41295;48.518;9.206;2023-02-20T07:15:27;98291.00;;;7.05;66.85
32251;BME280;41295;48.518;9.206;2023-02-20T07:17:29;98286.66;;;7.06;66.91
32251;BME280;41295;48.518;9.206;2023-02-20T07:19:32;98288.34;;;7.12;66.25
32251;BME280;41295;48.518;9.206;2023-02-20T07:21:34;98291.84;;;7.09;66.27
32251;BME280;41295;48.518;9.206;2023-02-20T07:23:37;98291.84;;;7.06;66.70
32251;BME280;41295;48.518;9.206;2023-02-20T07:25:39;98291.84;;;7.06;66.96
32251;BME280;41295;48.518;9.206;2023-02-20T07:27:42;98289.28;;;7.07;67.12
32251;BME280;41295;48.518;9.206;2023-02-20T07:29:46;98289.25;;;7.10;66.99
32251;BME280;41295;48.518;9.206;2023-02-20T07:31:49;98281.19;;;7.43;65.53
32251;BME280;41295;48.518;9.206;2023-02-20T07:33:52;98278.69;;;7.34;65.37
32251;BME280;41295;48.518;9.206;2023-02-20T07:35:54;98290.84;;;7.30;65.78
32251;BME280;41295;48.518;9.206;2023-02-20T07:37:57;98291.69;;;7.28;65.89
32251;BME280;41295;48.518;9.206;2023-02-20T07:39:59;98290.84;;;7.26;66.20
32251;BME280;41295;48.518;9.206;2023-02-20T07:42:02;98291.69;;;7.29;66.29
32251;BME280;41295;48.518;9.206;2023-02-20T07:44:05;98293.38;;;7.35;66.16
32251;BME280;41295;48.518;9.206;2023-02-20T07:46:09;98296.00;;;7.33;66.40
32251;BME280;41295;48.518;9.206;2023-02-20T07:48:13;98295.97;;;7.35;66.18
32251;BME280;41295;48.518;9.206;2023-02-20T07:50:16;98288.84;;;7.61;65.19
32251;BME280;41295;48.518;9.206;2023-02-20T07:52:18;98281.94;;;7.58;64.46
32251;BME280;41295;48.518;9.206;2023-02-20T07:54:21;98289.63;;;7.67;64.10
32251;BME280;41295;48.518;9.206;2023-02-20T07:56:25;98294.81;;;7.69;64.25
32251;BME280;41295;48.518;9.206;2023-02-20T07:58:27;98293.19;;;7.57;64.63
32251;BME280;41295;48.518;9.206;2023-02-20T08:00:30;98289.69;;;7.61;64.66
32251;BME280;41295;48.518;9.206;2023-02-20T08:02:34;98288.00;;;7.58;65.11
32251;BME280;41295;48.518;9.206;2023-02-20T08:04:36;98287.00;;;7.70;64.33
32251;BME280;41295;48.518;9.206;2023-02-20T08:06:39;98290.53;;;7.66;64.67
32251;BME280;41295;48.518;9.206;2023-02-20T08:08:41;98287.88;;;7.69;64.95
32251;BME280;41295;48.518;9.206;2023-02-20T08:10:44;98285.16;;;7.84;64.68
32251;BME280;41295;48.518;9.206;2023-02-20T08:12:50;98277.44;;;7.76;64.61
32251;BME280;41295;48.518;9.206;2023-02-20T08:14:52;98275.63;;;7.86;64.34
32251;BME280;41295;48.518;9.206;2023-02-20T08:16:55;98277.22;;;7.98;63.62
32251;BME280;41295;48.518;9.206;2023-02-20T08:18:59;98268.38;;;8.14;62.66
32251;BME280;41295;48.518;9.206;2023-02-20T08:21:02;98264.03;;;8.15;63.15
32251;BME280;41295;48.518;9.206;2023-02-20T08:23:12;98257.88;;;8.22;62.09
32251;BME280;41295;48.518;9.206;2023-02-20T08:25:16;98249.31;;;8.15;61.76
32251;BME280;41295;48.518;9.206;2023-02-20T08:27:18;98253.75;;;8.07;62.28
32251;BME280;41295;48.518;9.206;2023-02-20T08:29:21;98261.13;;;8.38;61.14
32251;BME280;41295;48.518;9.206;2023-02-20T08:31:23;98254.09;;;8.48;60.04
32251;BME280;41295;48.518;9.206;2023-02-20T08:33:33;98256.91;;;8.29;60.95
32251;BME280;41295;48.518;9.206;2023-02-20T08:35:37;98257.84;;;8.27;61.48
32251;BME280;41295;48.518;9.206;2023-02-20T08:37:39;98248.06;;;8.45;60.67
32251;BME280;41295;48.518;9.206;2023-02-20T08:39:42;98237.84;;;8.32;60.91
32251;BME280;41295;48.518;9.206;2023-02-20T08:41:45;98233.19;;;8.54;60.00
32251;BME280;41295;48.518;9.206;2023-02-20T08:43:48;98241.88;;;8.55;60.23
32251;BME280;41295;48.518;9.206;2023-02-20T08:45:51;98229.84;;;8.48;60.70
32251;BME280;41295;48.518;9.206;2023-02-20T08:47:56;98236.59;;;8.64;60.07
32251;BME280;41295;48.518;9.206;2023-02-20T08:50:02;98239.63;;;8.92;59.36
32251;BME280;41295;48.518;9.206;2023-02-20T08:52:06;98227.56;;;8.87;59.41
32251;BME280;41295;48.518;9.206;2023-02-20T08:54:08;98230.34;;;8.76;59.80
32251;BME280;41295;48.518;9.206;2023-02-20T08:56:11;98227.63;;;8.84;60.41
32251;BME280;41295;48.518;9.206;2023-02-20T08:58:17;98238.81;;;8.89;60.26
32251;BME280;41295;48.518;9.206;2023-02-20T09:00:20;98223.84;;;9.02;59.22
32251;BME280;41295;48.518;9.206;2023-02-20T09:02:24;98216.84;;;9.08;59.22
32251;BME280;41295;48.518;9.206;2023-02-20T09:04:29;98218.53;;;9.10;59.14
32251;BME280;41295;48.518;9.206;2023-02-20T09:06:32;98218.66;;;9.02;59.08
32251;BME280;41295;48.518;9.206;2023-02-20T09:08:36;98211.72;;;9.03;59.19
32251;BME280;41295;48.518;9.206;2023-02-20T09:10:39;98212.59;;;9.04;59.65
32251;BME280;41295;48.518;9.206;2023-02-20T09:12:42;98206.25;;;9.19;58.85
32251;BME280;41295;48.518;9.206;2023-02-20T09:14:44;98209.53;;;9.30;58.29
32251;BME280;41295;48.518;9.206;2023-02-20T09:16:50;98211.25;;;9.31;58.21
32251;BME280;41295;48.518;9.206;2023-02-20T09:18:53;98207.22;;;9.13;58.86
32251;BME280;41295;48.518;9.206;2023-02-20T09:20:57;98205.03;;;9.38;58.24
32251;BME280;41295;48.518;9.206;2023-02-20T09:23:00;98205.25;;;9.26;59.17
32251;BME280;41295;48.518;9.206;2023-02-20T09:25:05;98205.38;;;9.20;59.02
32251;BME280;41295;48.518;9.206;2023-02-20T09:27:08;98189.03;;;9.13;59.49
32251;BME280;41295;48.518;9.206;2023-02-20T09:29:10;98193.91;;;9.30;58.17
32251;BME280;41295;48.518;9.206;2023-02-20T09:31:13;98196.72;;;9.19;58.13
32251;BME280;41295;48.518;9.206;2023-02-20T09:33:16;98193.19;;;9.23;58.43
32251;BME280;41295;48.518;9.206;2023-02-20T09:35:22;98194.94;;;9.21;59.30
32251;BME280;41295;48.518;9.206;2023-02-20T09:37:25;98199.44;;;9.60;57.69
32251;BME280;41295;48.518;9.206;2023-02-20T09:39:28;98194.59;;;9.40;57.63
32251;BME280;41295;48.518;9.206;2023-02-20T09:41:44;98192.75;;;9.48;57.92
32251;BME280;41295;48.518;9.206;2023-02-20T09:43:55;98197.25;;;9.38;57.93
32251;BME280;41295;48.518;9.206;2023-02-20T09:46:05;98200.13;;;9.70;57.22
32251;BME280;41295;48.518;9.206;2023-02-20T09:48:22;98198.16;;;9.83;56.82
32251;BME280;41295;48.518;9.206;2023-02-20T09:50:33;98192.91;;;9.85;56.59
32251;BME280;41295;48.518;9.206;2023-02-20T09:52:38;98183.69;;;9.68;57.35
32251;BME280;41295;48.518;9.206;2023-02-20T09:54:46;98187.09;;;9.72;57.29
32251;BME280;41295;48.518;9.206;2023-02-20T09:56:53;98179.25;;;9.73;57.05
32251;BME280;41295;48.518;9.206;2023-02-20T09:59:03;98174.31;;;9.58;57.65
32251;BME280;41295;48.518;9.206;2023-02-20T10:01:10;98175.19;;;9.58;58.40
32251;BME280;41295;48.518;9.206;2023-02-20T10:03:21;98177.56;;;9.71;58.66
32251;BME280;41295;48.518;9.206;2023-02-20T10:05:27;98177.69;;;9.65;58.58
32251;BME280;41295;48.518;9.206;2023-02-20T10:07:32;98184.31;;;9.80;58.90
32251;BME280;41295;48.518;9.206;2023-02-20T10:09:35;98180.09;;;9.74;58.92
32251;BME280;41295;48.518;9.206;2023-02-20T10:11:48;98183.41;;;9.82;58.98
32251;BME280;41295;48.518;9.206;2023-02-20T10:14:12;98180.84;;;9.79;58.63
32251;BME280;41295;48.518;9.206;2023-02-20T10:16:29;98166.06;;;10.22;57.05
32251;BME280;41295;48.518;9.206;2023-02-20T10:18:39;98167.28;;;10.07;57.68
32251;BME280;41295;48.518;9.206;2023-02-20T10:20:53;98170.06;;;10.39;56.57
32251;BME280;41295;48.518;9.206;2023-02-20T10:23:04;98166.78;;;10.31;56.27
32251;BME280;41295;48.518;9.206;2023-02-20T10:25:15;98165.38;;;10.14;57.38
32251;BME280;41295;48.518;9.206;2023-02-20T10:27:26;98161.16;;;10.08;57.42
32251;BME280;41295;48.518;9.206;2023-02-20T10:29:34;98158.22;;;10.24;57.39
32251;BME280;41295;48.518;9.206;2023-02-20T10:31:43;98162.88;;;10.09;57.58
32251;BME280;41295;48.518;9.206;2023-02-20T10:33:49;98167.31;;;10.04;57.88
32251;BME280;41295;48.518;9.206;2023-02-20T10:35:57;98169.84;;;10.09;56.97
32251;BME280;41295;48.518;9.206;2023-02-20T10:38:05;98170.78;;;10.05;56.67
32251;BME280;41295;48.518;9.206;2023-02-20T10:40:15;98172.56;;;10.03;57.33
32251;BME280;41295;48.518;9.206;2023-02-20T10:42:22;98168.47;;;10.32;55.94
32251;BME280;41295;48.518;9.206;2023-02-20T10:44:34;98168.41;;;10.35;56.13
32251;BME280;41295;48.518;9.206;2023-02-20T10:46:59;98168.63;;;10.24;55.58
32251;BME280;41295;48.518;9.206;2023-02-20T10:49:08;98172.78;;;10.33;55.46
32251;BME280;41295;48.518;9.206;2023-02-20T10:51:16;98166.00;;;10.27;56.04
32251;BME280;41295;48.518;9.206;2023-02-20T10:53:24;98164.84;;;10.39;55.57
32251;BME280;41295;48.518;9.206;2023-02-20T10:55:34;98161.13;;;10.51;55.33
32251;BME280;41295;48.518;9.206;2023-02-20T10:57:46;98153.53;;;10.40;55.70
32251;BME280;41295;48.518;9.206;2023-02-20T10:59:53;98149.00;;;10.50;54.78
32251;BME280;41295;48.518;9.206;2023-02-20T11:02:04;98151.69;;;10.44;55.45
32251;BME280;41295;48.518;9.206;2023-02-20T11:04:14;98147.66;;;10.30;56.07
32251;BME280;41295;48.518;9.206;2023-02-20T11:06:20;98140.09;;;10.59;55.42
32251;BME280;41295;48.518;9.206;2023-02-20T11:08:24;98139.47;;;10.48;55.24
32251;BME280;41295;48.518;9.206;2023-02-20T11:10:27;98137.41;;;10.62;55.07
32251;BME280;41295;48.518;9.206;2023-02-20T11:12:33;98137.09;;;10.75;54.31
32251;BME280;41295;48.518;9.206;2023-02-20T11:14:42;98121.91;;;10.56;55.15
32251;BME280;41295;48.518;9.206;2023-02-20T11:16:52;98122.66;;;10.61;55.16
32251;BME280;41295;48.518;9.206;2023-02-20T11:19:06;98126.94;;;10.64;54.97